Time;durP1;ratioP1;P1;durP2;ratioP2;P2;SDS_P1;SDS_P2;PMS_P1;PMS_P2;Temp;Humidity;BMP_temperature;BMP_pressure;BME280_temperature;BME280_humidity;BME280_pressure;Samples;Min_cycle;Max_cycle;Signal;HPM_P1;HPM_P2
2023/10/31 00:02:00;;;;;;;1.35;0.50;;;;;;;;;;5034835;28;20080;-61
2023/10/31 00:04:27;;;;;;;1.98;1.17;;;;;;;;;;5048061;28;20084;-61
2023/10/31 00:06:54;;;;;;;0.40;0.40;;;;;;;;;;5066017;28;20048;-60
2023/10/31 00:09:22;;;;;;;3.72;1.25;;;;;;;;;;5065914;28;20121;-62
2023/10/31 00:11:49;;;;;;;0.88;0.40;;;;;;;;;;5048790;28;20060;-61
2023/10/31 00:14:15;;;;;;;5.45;0.80;;;;;;;;;;5046958;28;20080;-61
2023/10/31 00:16:42;;;;;;;0.50;0.50;;;;;;;;;;5046487;28;20055;-62
2023/10/31 00:19:11;;;;;;;1.40;0.80;;;;;;;;;;5047461;28;20057;-62
2023/10/31 00:21:41;;;;;;;1.50;0.70;;;;;;;;;;5042763;28;20053;-62
2023/10/31 00:24:08;;;;;;;1.77;0.52;;;;;;;;;;5025602;28;20060;-61
2023/10/31 00:26:36;;;;;;;2.40;0.75;;;;;;;;;;5065560;28;20126;-63
2023/10/31 00:29:02;;;;;;;3.42;0.63;;;;;;;;;;5066018;28;20064;-65
2023/10/31 00:31:29;;;;;;;2.67;0.88;;;;;;;;;;5066017;28;20072;-61
2023/10/31 00:33:57;;;;;;;2.95;0.65;;;;;;;;;;5057356;28;20063;-63
2023/10/31 00:36:26;;;;;;;2.97;0.80;;;;;;;;;;5049896;28;20149;-61
2023/10/31 00:38:53;;;;;;;1.85;0.68;;;;;;;;;;5059366;28;20063;-62
2023/10/31 00:41:20;;;;;;;3.58;0.77;;;;;;;;;;5060369;28;20061;-61
2023/10/31 00:43:48;;;;;;;4.35;0.98;;;;;;;;;;5028528;28;20057;-60
2023/10/31 00:46:15;;;;;;;3.08;1.00;;;;;;;;;;5026519;28;20084;-61
2023/10/31 00:48:44;;;;;;;2.85;1.08;;;;;;;;;;5046712;28;20060;-63
2023/10/31 00:51:11;;;;;;;4.55;2.08;;;;;;;;;;5043881;28;20045;-62
2023/10/31 00:53:38;;;;;;;9.63;3.42;;;;;;;;;;5021715;28;20056;-62
2023/10/31 00:56:05;;;;;;;8.60;2.33;;;;;;;;;;5042586;28;20059;-61
2023/10/31 00:58:32;;;;;;;6.22;1.73;;;;;;;;;;5066187;28;20097;-62
2023/10/31 01:01:00;;;;;;;7.68;2.17;;;;;;;;;;5039361;28;20136;-63
2023/10/31 01:03:30;;;;;;;7.47;2.38;;;;;;;;;;5008718;28;20045;-63
2023/10/31 01:05:57;;;;;;;7.63;2.90;;;;;;;;;;4995985;28;20194;-60
2023/10/31 01:08:24;;;;;;;6.13;2.55;;;;;;;;;;5005971;28;20787;-61
2023/10/31 01:10:52;;;;;;;6.68;3.03;;;;;;;;;;5005304;28;20100;-64
2023/10/31 01:13:20;;;;;;;8.07;3.42;;;;;;;;;;4950096;28;20045;-63
2023/10/31 01:15:47;;;;;;;8.27;4.35;;;;;;;;;;4988507;28;20063;-64
2023/10/31 01:18:15;;;;;;;8.85;3.97;;;;;;;;;;5007746;28;20149;-63
2023/10/31 01:20:41;;;;;;;9.50;3.40;;;;;;;;;;5005123;28;20049;-63
2023/10/31 01:23:08;;;;;;;7.07;2.88;;;;;;;;;;5007847;28;20057;-63
2023/10/31 01:25:37;;;;;;;5.38;2.58;;;;;;;;;;5019659;28;20110;-66
2023/10/31 01:28:04;;;;;;;6.70;2.95;;;;;;;;;;5025669;28;20048;-63
2023/10/31 01:30:31;;;;;;;9.27;3.25;;;;;;;;;;5020525;28;20148;-62
2023/10/31 01:32:58;;;;;;;10.15;3.00;;;;;;;;;;5021621;28;20111;-61
2023/10/31 01:35:26;;;;;;;9.82;3.45;;;;;;;;;;5019361;28;20081;-62
2023/10/31 01:37:53;;;;;;;9.02;3.63;;;;;;;;;;5016975;28;20060;-62
2023/10/31 01:40:21;;;;;;;10.15;3.83;;;;;;;;;;5024709;28;20042;-66
2023/10/31 01:42:49;;;;;;;10.13;4.40;;;;;;;;;;5019649;28;20067;-60
2023/10/31 01:45:15;;;;;;;8.82;3.75;;;;;;;;;;5007519;28;20085;-62
2023/10/31 01:47:44;;;;;;;11.13;4.38;;;;;;;;;;5016473;28;20053;-63
2023/10/31 01:50:11;;;;;;;10.88;4.22;;;;;;;;;;5018837;28;20085;-62
2023/10/31 01:52:39;;;;;;;10.70;4.20;;;;;;;;;;5000612;28;20460;-61
2023/10/31 01:55:07;;;;;;;11.73;4.78;;;;;;;;;;4979366;28;20057;-62
2023/10/31 01:57:34;;;;;;;13.43;5.28;;;;;;;;;;5000797;28;20084;-61
2023/10/31 02:00:01;;;;;;;12.15;4.68;;;;;;;;;;4980367;28;20106;-61
2023/10/31 02:02:29;;;;;;;11.77;4.60;;;;;;;;;;5016083;28;20072;-62
2023/10/31 02:04:56;;;;;;;10.23;4.50;;;;;;;;;;5003399;28;20057;-64
2023/10/31 02:07:22;;;;;;;10.10;4.25;;;;;;;;;;5024983;28;20048;-65
2023/10/31 02:09:51;;;;;;;10.23;4.22;;;;;;;;;;5037590;28;20148;-62
2023/10/31 02:12:34;;;;;;;9.38;4.22;;;;;;;;;;5024489;28;20049;-61
2023/10/31 02:15:02;;;;;;;12.95;4.43;;;;;;;;;;5020376;28;20081;-61
2023/10/31 02:17:28;;;;;;;9.05;3.40;;;;;;;;;;5020711;28;20151;-62
2023/10/31 02:19:54;;;;;;;9.00;3.08;;;;;;;;;;5015762;28;20045;-62
2023/10/31 02:22:22;;;;;;;5.97;2.80;;;;;;;;;;5029067;28;20141;-67
2023/10/31 02:24:49;;;;;;;8.95;3.03;;;;;;;;;;5001739;28;20053;-60
2023/10/31 02:27:16;;;;;;;12.13;2.55;;;;;;;;;;5024019;28;20061;-64
2023/10/31 02:29:46;;;;;;;8.73;2.83;;;;;;;;;;5022168;28;20718;-65
2023/10/31 02:32:13;;;;;;;7.07;3.00;;;;;;;;;;5025487;28;20194;-62
2023/10/31 02:34:39;;;;;;;7.65;3.17;;;;;;;;;;4968853;28;20061;-64
2023/10/31 02:37:06;;;;;;;11.77;3.67;;;;;;;;;;5025482;28;20068;-66
2023/10/31 02:39:35;;;;;;;8.02;3.95;;;;;;;;;;5026669;28;20059;-63
2023/10/31 02:42:04;;;;;;;8.18;3.97;;;;;;;;;;5039127;28;20056;-64
2023/10/31 02:44:31;;;;;;;12.45;4.20;;;;;;;;;;5036818;28;20067;-66
2023/10/31 02:46:57;;;;;;;9.20;3.67;;;;;;;;;;5030645;28;20078;-62
2023/10/31 02:49:24;;;;;;;9.60;3.33;;;;;;;;;;5024877;28;20080;-64
2023/10/31 02:51:51;;;;;;;9.95;3.85;;;;;;;;;;5033840;28;20110;-63
2023/10/31 02:54:17;;;;;;;9.52;3.90;;;;;;;;;;5033383;28;20139;-65
2023/10/31 02:56:48;;;;;;;10.82;4.05;;;;;;;;;;5045270;28;20124;-66
2023/10/31 02:59:14;;;;;;;10.27;4.05;;;;;;;;;;5040479;28;20045;-65
2023/10/31 03:01:42;;;;;;;10.95;4.35;;;;;;;;;;5017027;28;20053;-62
2023/10/31 03:04:08;;;;;;;8.50;4.10;;;;;;;;;;5021260;28;20130;-63
2023/10/31 03:06:35;;;;;;;9.68;4.22;;;;;;;;;;5057453;28;21037;-63
2023/10/31 03:09:04;;;;;;;9.07;4.03;;;;;;;;;;5061756;28;20118;-63
2023/10/31 03:11:32;;;;;;;;;;;;;;;;;;5060099;28;20052;-64
2023/10/31 03:14:00;;;;;;;10.00;4.30;;;;;;;;;;5054466;28;19981;-64
2023/10/31 03:16:27;;;;;;;8.90;4.13;;;;;;;;;;5048171;28;20099;-66
2023/10/31 03:18:55;;;;;;;11.30;4.50;;;;;;;;;;5040825;28;20091;-64
2023/10/31 03:21:24;;;;;;;7.25;3.78;;;;;;;;;;5035584;28;20132;-65
2023/10/31 03:23:52;;;;;;;8.23;3.55;;;;;;;;;;5034065;28;20061;-63
2023/10/31 03:26:19;;;;;;;;;;;;;;;;;;5037643;28;20152;-62
2023/10/31 03:28:46;;;;;;;9.30;3.45;;;;;;;;;;5041478;28;19925;-65
2023/10/31 03:31:15;;;;;;;8.40;3.35;;;;;;;;;;5057426;28;20053;-62
2023/10/31 03:33:43;;;;;;;9.70;3.78;;;;;;;;;;5035530;28;20048;-64
2023/10/31 03:36:12;;;;;;;8.10;3.40;;;;;;;;;;5020386;28;20080;-66
2023/10/31 03:38:40;;;;;;;7.53;3.20;;;;;;;;;;5017567;28;20057;-62
2023/10/31 03:41:06;;;;;;;8.60;3.08;;;;;;;;;;5020624;28;20073;-66
2023/10/31 03:43:33;;;;;;;6.53;2.92;;;;;;;;;;5020007;28;20077;-62
2023/10/31 03:46:01;;;;;;;11.75;3.45;;;;;;;;;;5047150;28;20057;-61
2023/10/31 03:48:29;;;;;;;8.85;3.45;;;;;;;;;;5059628;28;20052;-66
2023/10/31 03:50:55;;;;;;;8.45;3.08;;;;;;;;;;5065212;28;20068;-62
2023/10/31 03:53:22;;;;;;;6.15;2.83;;;;;;;;;;5063392;28;20048;-64
2023/10/31 03:55:49;;;;;;;7.78;2.80;;;;;;;;;;5062726;28;20059;-65
2023/10/31 03:58:20;;;;;;;7.30;2.67;;;;;;;;;;5060413;28;20056;-64
2023/10/31 04:00:46;;;;;;;5.35;2.40;;;;;;;;;;5041008;28;20069;-65
2023/10/31 04:03:13;;;;;;;4.68;2.05;;;;;;;;;;5045848;28;20065;-63
2023/10/31 04:05:41;;;;;;;10.23;2.40;;;;;;;;;;4963959;28;20073;-63
2023/10/31 04:08:07;;;;;;;5.10;2.08;;;;;;;;;;5026897;28;20065;-65
2023/10/31 04:10:34;;;;;;;5.70;2.20;;;;;;;;;;5017374;28;20120;-61
2023/10/31 04:13:00;;;;;;;4.07;2.00;;;;;;;;;;5024690;28;20084;-63
2023/10/31 04:15:27;;;;;;;8.20;2.05;;;;;;;;;;5034428;28;20088;-61
2023/10/31 04:17:54;;;;;;;4.05;1.88;;;;;;;;;;5046518;28;20071;-62
2023/10/31 04:20:20;;;;;;;5.10;2.30;;;;;;;;;;5038195;28;20072;-65
2023/10/31 04:22:52;;;;;;;5.55;2.20;;;;;;;;;;5043701;28;20045;-66
2023/10/31 04:25:19;;;;;;;5.25;1.92;;;;;;;;;;5037961;28;20063;-64
2023/10/31 04:27:46;;;;;;;5.30;2.15;;;;;;;;;;5047904;28;20053;-60
2023/10/31 04:30:13;;;;;;;5.78;2.17;;;;;;;;;;5031030;28;20049;-63
2023/10/31 04:32:39;;;;;;;12.75;2.63;;;;;;;;;;5021581;28;20065;-61
2023/10/31 04:35:07;;;;;;;5.68;2.55;;;;;;;;;;5012024;28;20045;-63
2023/10/31 04:37:33;;;;;;;5.20;2.33;;;;;;;;;;5025493;28;20053;-63
2023/10/31 04:40:01;;;;;;;5.80;2.42;;;;;;;;;;5035969;28;20075;-64
2023/10/31 04:42:28;;;;;;;5.38;2.38;;;;;;;;;;5037836;28;20076;-64
2023/10/31 04:44:55;;;;;;;7.32;2.90;;;;;;;;;;5011779;28;20080;-63
2023/10/31 04:47:21;;;;;;;6.90;3.25;;;;;;;;;;5024769;28;20053;-61
2023/10/31 04:49:48;;;;;;;5.57;3.08;;;;;;;;;;5024794;28;20156;-64
2023/10/31 04:52:15;;;;;;;7.40;3.15;;;;;;;;;;5022505;28;20081;-62
2023/10/31 04:54:41;;;;;;;7.43;2.83;;;;;;;;;;5015244;28;20053;-62
2023/10/31 04:57:09;;;;;;;9.00;3.47;;;;;;;;;;5026939;28;20057;-64
2023/10/31 04:59:36;;;;;;;10.93;3.35;;;;;;;;;;5022531;28;20138;-63
2023/10/31 05:02:03;;;;;;;6.97;3.17;;;;;;;;;;5008871;28;20157;-62
2023/10/31 05:04:30;;;;;;;8.18;3.67;;;;;;;;;;4964281;28;20140;-61
2023/10/31 05:06:56;;;;;;;9.07;3.53;;;;;;;;;;4983195;28;20084;-61
2023/10/31 05:09:24;;;;;;;9.68;2.80;;;;;;;;;;4995925;28;20061;-64
2023/10/31 05:11:51;;;;;;;7.10;3.35;;;;;;;;;;5000001;28;20046;-62
2023/10/31 05:14:20;;;;;;;8.57;3.20;;;;;;;;;;4969043;28;20060;-64
2023/10/31 05:16:46;;;;;;;6.22;2.63;;;;;;;;;;4982826;28;20153;-62
2023/10/31 05:19:13;;;;;;;9.23;3.10;;;;;;;;;;4983857;28;20046;-62
2023/10/31 05:21:43;;;;;;;7.88;2.72;;;;;;;;;;5001302;28;20088;-63
2023/10/31 05:24:10;;;;;;;5.57;2.55;;;;;;;;;;4959467;28;20066;-63
2023/10/31 05:26:36;;;;;;;5.60;2.60;;;;;;;;;;4985950;28;20184;-61
2023/10/31 05:29:03;;;;;;;9.15;2.88;;;;;;;;;;5001358;28;20065;-62
2023/10/31 05:31:31;;;;;;;4.70;2.08;;;;;;;;;;5017155;28;20085;-64
2023/10/31 05:33:58;;;;;;;5.35;2.30;;;;;;;;;;4997852;28;20053;-64
2023/10/31 05:36:30;;;;;;;4.00;1.70;;;;;;;;;;5001452;28;20061;-64
2023/10/31 05:38:57;;;;;;;3.67;1.85;;;;;;;;;;5022697;28;20080;-64
2023/10/31 05:41:24;;;;;;;5.57;1.60;;;;;;;;;;5009099;28;20066;-62
2023/10/31 05:43:53;;;;;;;3.88;1.58;;;;;;;;;;5002415;28;20087;-62
2023/10/31 05:46:19;;;;;;;4.10;1.63;;;;;;;;;;5012911;28;20049;-63
2023/10/31 05:48:48;;;;;;;5.53;1.95;;;;;;;;;;5022479;28;20084;-61
2023/10/31 05:51:16;;;;;;;4.20;1.80;;;;;;;;;;5021211;28;20057;-64
2023/10/31 05:53:45;;;;;;;3.40;1.45;;;;;;;;;;5022095;28;20077;-62
2023/10/31 05:56:22;;;;;;;2.88;1.52;;;;;;;;;;5004605;28;20054;-63
2023/10/31 05:58:51;;;;;;;4.53;1.60;;;;;;;;;;5001386;28;20072;-62
2023/10/31 06:01:18;;;;;;;3.70;1.30;;;;;;;;;;5008889;28;20061;-61
2023/10/31 06:03:49;;;;;;;2.88;1.23;;;;;;;;;;5020183;28;20049;-63
2023/10/31 06:06:15;;;;;;;8.43;3.00;;;;;;;;;;4968219;28;20053;-62
2023/10/31 06:08:45;;;;;;;12.23;3.70;;;;;;;;;;5018622;28;20065;-62
2023/10/31 06:11:13;;;;;;;10.50;4.53;;;;;;;;;;5021063;28;20053;-65
2023/10/31 06:13:40;;;;;;;12.27;5.30;;;;;;;;;;5019794;28;20064;-65
2023/10/31 06:16:08;;;;;;;12.20;6.35;;;;;;;;;;5000956;28;20064;-62
2023/10/31 06:18:35;;;;;;;9.07;4.50;;;;;;;;;;5010324;28;20114;-61
2023/10/31 06:21:04;;;;;;;8.15;2.67;;;;;;;;;;5006015;28;20150;-66
2023/10/31 06:23:31;;;;;;;5.72;1.85;;;;;;;;;;5001571;28;20069;-63
2023/10/31 06:25:58;;;;;;;1.92;1.30;;;;;;;;;;4994222;28;20063;-62
2023/10/31 06:28:24;;;;;;;3.17;1.02;;;;;;;;;;5018466;28;20119;-63
2023/10/31 06:30:51;;;;;;;3.97;1.65;;;;;;;;;;5030503;28;20128;-63
2023/10/31 06:33:18;;;;;;;8.35;3.83;;;;;;;;;;5017365;28;20072;-66
2023/10/31 06:35:46;;;;;;;9.07;4.07;;;;;;;;;;5027208;28;20060;-62
2023/10/31 06:38:15;;;;;;;5.63;2.17;;;;;;;;;;5020224;28;20057;-64
2023/10/31 06:40:41;;;;;;;1.45;1.15;;;;;;;;;;5014775;28;20062;-63
2023/10/31 06:43:08;;;;;;;3.90;0.93;;;;;;;;;;5021418;28;20137;-65
2023/10/31 06:45:35;;;;;;;2.35;1.10;;;;;;;;;;4980984;28;20053;-65
2023/10/31 06:48:01;;;;;;;2.40;0.90;;;;;;;;;;5019764;28;20050;-63
2023/10/31 06:50:28;;;;;;;1.50;0.90;;;;;;;;;;5012212;28;20445;-64
2023/10/31 06:52:55;;;;;;;1.33;0.90;;;;;;;;;;5005093;28;20139;-63
2023/10/31 06:55:23;;;;;;;3.10;1.00;;;;;;;;;;4966146;28;20481;-61
2023/10/31 06:57:58;;;;;;;2.75;1.17;;;;;;;;;;5000099;28;20062;-65
2023/10/31 07:00:25;;;;;;;5.78;1.55;;;;;;;;;;4992365;28;20056;-64
2023/10/31 07:02:54;;;;;;;6.10;2.45;;;;;;;;;;5024923;28;20471;-63
2023/10/31 07:05:20;;;;;;;;;;;;;;;;;;5028644;28;20045;-64
2023/10/31 07:07:47;;;;;;;8.10;1.85;;;;;;;;;;5023569;28;19935;-63
2023/10/31 07:10:17;;;;;;;6.15;2.63;;;;;;;;;;5037900;28;20119;-65
2023/10/31 07:12:48;;;;;;;6.45;2.75;;;;;;;;;;5036683;28;20049;-63
2023/10/31 07:15:15;;;;;;;5.22;2.40;;;;;;;;;;5006483;28;20054;-64
2023/10/31 07:17:44;;;;;;;8.85;2.80;;;;;;;;;;5017696;28;20063;-62
2023/10/31 07:20:14;;;;;;;8.02;3.20;;;;;;;;;;5017756;28;20049;-64
2023/10/31 07:22:41;;;;;;;8.20;3.75;;;;;;;;;;5006515;28;20057;-64
2023/10/31 07:25:08;;;;;;;12.15;3.63;;;;;;;;;;5024730;28;20122;-66
2023/10/31 07:27:37;;;;;;;8.53;3.27;;;;;;;;;;5022760;28;20064;-69
2023/10/31 07:30:06;;;;;;;10.27;3.40;;;;;;;;;;5022225;28;20304;-62
2023/10/31 07:32:33;;;;;;;8.18;3.83;;;;;;;;;;5016548;28;20060;-67
2023/10/31 07:35:00;;;;;;;9.77;3.85;;;;;;;;;;4986304;28;20060;-61
2023/10/31 07:37:27;;;;;;;11.00;3.40;;;;;;;;;;5023800;28;20048;-64
2023/10/31 07:39:53;;;;;;;10.43;4.05;;;;;;;;;;5022183;28;20118;-63
2023/10/31 07:42:22;;;;;;;17.30;7.93;;;;;;;;;;5017204;28;20065;-65
2023/10/31 07:44:50;;;;;;;15.20;6.55;;;;;;;;;;5001800;28;20115;-64
2023/10/31 07:47:18;;;;;;;10.88;4.80;;;;;;;;;;5037646;28;20135;-61
2023/10/31 07:49:45;;;;;;;9.13;3.58;;;;;;;;;;5023147;28;20056;-64
2023/10/31 07:52:12;;;;;;;17.50;6.80;;;;;;;;;;5021083;28;20057;-63
2023/10/31 07:54:40;;;;;;;9.38;4.55;;;;;;;;;;5014942;28;20104;-65
2023/10/31 07:57:06;;;;;;;9.65;4.20;;;;;;;;;;5058847;28;20060;-66
2023/10/31 07:59:34;;;;;;;11.63;4.10;;;;;;;;;;5043958;28;20084;-59
2023/10/31 08:02:01;;;;;;;10.40;4.22;;;;;;;;;;5044437;28;20076;-65
2023/10/31 08:04:29;;;;;;;10.13;4.30;;;;;;;;;;5029135;28;20057;-64
2023/10/31 08:06:57;;;;;;;8.93;4.18;;;;;;;;;;5027199;28;20053;-62
2023/10/31 08:09:24;;;;;;;9.13;4.10;;;;;;;;;;5025324;28;20044;-66
2023/10/31 08:11:51;;;;;;;8.88;3.55;;;;;;;;;;5025646;28;20084;-66
2023/10/31 08:14:18;;;;;;;7.55;3.45;;;;;;;;;;5004209;28;20056;-64
2023/10/31 08:16:45;;;;;;;12.75;4.22;;;;;;;;;;5021317;28;20067;-65
2023/10/31 08:19:15;;;;;;;8.13;3.53;;;;;;;;;;5038453;28;20053;-66
2023/10/31 08:21:46;;;;;;;8.75;3.90;;;;;;;;;;5026034;28;20152;-61
2023/10/31 08:24:14;;;;;;;8.35;3.45;;;;;;;;;;4990922;28;20053;-66
2023/10/31 08:26:41;;;;;;;11.80;4.28;;;;;;;;;;5015490;28;20057;-63
2023/10/31 08:29:07;;;;;;;8.68;3.65;;;;;;;;;;5022565;28;20063;-68
2023/10/31 08:31:34;;;;;;;11.10;4.03;;;;;;;;;;5055683;28;20053;-64
2023/10/31 08:34:00;;;;;;;10.07;3.78;;;;;;;;;;5038993;28;20438;-63
2023/10/31 08:36:28;;;;;;;4.38;2.42;;;;;;;;;;5010286;28;20048;-64
2023/10/31 08:38:56;;;;;;;9.70;2.83;;;;;;;;;;5041797;28;20060;-65
2023/10/31 08:41:23;;;;;;;6.00;2.63;;;;;;;;;;5035963;28;20055;-61
2023/10/31 08:43:50;;;;;;;5.55;2.17;;;;;;;;;;5034176;28;20118;-65
2023/10/31 08:46:17;;;;;;;7.97;2.50;;;;;;;;;;5032526;28;20033;-63
2023/10/31 08:48:44;;;;;;;7.18;2.75;;;;;;;;;;5054185;28;20059;-66
2023/10/31 08:51:11;;;;;;;6.82;2.30;;;;;;;;;;5056061;28;20053;-64
2023/10/31 08:53:37;;;;;;;7.82;2.60;;;;;;;;;;5038318;28;20084;-62
2023/10/31 08:56:07;;;;;;;7.05;2.78;;;;;;;;;;5016960;28;20139;-66
2023/10/31 08:58:36;;;;;;;5.55;2.45;;;;;;;;;;5036742;28;20052;-64
2023/10/31 09:01:03;;;;;;;8.88;2.90;;;;;;;;;;5029910;28;20130;-64
2023/10/31 09:03:30;;;;;;;6.45;2.70;;;;;;;;;;5036918;28;20068;-62
2023/10/31 09:05:59;;;;;;;6.68;2.50;;;;;;;;;;5026774;28;20172;-63
2023/10/31 09:08:26;;;;;;;9.38;2.88;;;;;;;;;;5029903;28;20103;-65
2023/10/31 09:10:52;;;;;;;9.13;3.47;;;;;;;;;;5037159;28;20087;-61
2023/10/31 09:13:21;;;;;;;10.65;3.50;;;;;;;;;;5032800;28;20084;-66
2023/10/31 09:15:49;;;;;;;7.50;2.63;;;;;;;;;;4987860;28;20075;-65
2023/10/31 09:18:16;;;;;;;7.70;2.60;;;;;;;;;;5024776;28;20068;-62
2023/10/31 09:20:43;;;;;;;7.03;2.90;;;;;;;;;;5027251;28;20132;-64
2023/10/31 09:23:11;;;;;;;7.70;2.72;;;;;;;;;;5040952;28;20084;-64
2023/10/31 09:25:37;;;;;;;6.35;2.83;;;;;;;;;;4992365;28;20057;-61
2023/10/31 09:28:06;;;;;;;8.65;2.90;;;;;;;;;;5014873;28;20064;-62
2023/10/31 09:30:34;;;;;;;8.70;3.60;;;;;;;;;;5023699;28;20388;-63
2023/10/31 09:33:01;;;;;;;10.07;2.78;;;;;;;;;;5016869;28;20160;-64
2023/10/31 09:35:27;;;;;;;9.15;3.25;;;;;;;;;;5016092;28;20057;-65
2023/10/31 09:37:54;;;;;;;23.40;4.00;;;;;;;;;;5038557;28;20121;-62
2023/10/31 09:40:21;;;;;;;9.02;4.05;;;;;;;;;;5033322;28;20171;-64
2023/10/31 09:42:50;;;;;;;13.02;4.70;;;;;;;;;;5028191;28;20045;-65
2023/10/31 09:45:18;;;;;;;12.68;4.82;;;;;;;;;;4988761;28;20140;-64
2023/10/31 09:47:46;;;;;;;8.68;4.28;;;;;;;;;;5023680;28;20176;-63
2023/10/31 09:50:19;;;;;;;10.95;4.20;;;;;;;;;;5015708;28;20053;-61
2023/10/31 09:52:49;;;;;;;10.50;4.75;;;;;;;;;;5016493;28;20061;-63
2023/10/31 09:55:16;;;;;;;12.82;4.93;;;;;;;;;;4997155;28;20068;-62
2023/10/31 09:57:44;;;;;;;12.30;4.85;;;;;;;;;;5017208;28;20065;-64
2023/10/31 10:00:19;;;;;;;13.27;4.55;;;;;;;;;;5015427;28;20053;-64
2023/10/31 10:02:47;;;;;;;9.00;3.75;;;;;;;;;;5034356;28;20088;-62
2023/10/31 10:05:17;;;;;;;13.77;4.38;;;;;;;;;;5004093;28;20049;-63
2023/10/31 10:07:44;;;;;;;14.98;4.97;;;;;;;;;;5030862;28;20089;-64
2023/10/31 10:10:13;;;;;;;10.80;4.10;;;;;;;;;;5005950;28;20050;-63
2023/10/31 10:12:42;;;;;;;13.65;3.60;;;;;;;;;;5005100;28;20056;-63
2023/10/31 10:15:09;;;;;;;13.50;5.45;;;;;;;;;;4979002;28;20083;-65
2023/10/31 10:17:36;;;;;;;16.30;5.05;;;;;;;;;;5031212;28;20136;-62
2023/10/31 10:20:15;;;;;;;13.02;4.60;;;;;;;;;;5019696;28;20147;-63
2023/10/31 10:22:44;;;;;;;;;;;;;;;;;;5033368;28;20148;-63
2023/10/31 10:25:15;;;;;;;9.23;3.67;;;;;;;;;;4978136;28;19925;-62
2023/10/31 10:27:42;;;;;;;11.32;4.38;;;;;;;;;;5031342;28;20049;-64
2023/10/31 10:30:16;;;;;;;13.55;4.57;;;;;;;;;;5019612;28;20045;-63
2023/10/31 10:32:45;;;;;;;9.85;4.32;;;;;;;;;;5026166;28;20131;-64
2023/10/31 10:35:15;;;;;;;14.52;4.88;;;;;;;;;;4990814;28;20083;-62
2023/10/31 10:37:44;;;;;;;14.73;4.47;;;;;;;;;;5042610;28;20053;-63
2023/10/31 10:40:16;;;;;;;12.52;4.75;;;;;;;;;;5025577;28;20071;-60
2023/10/31 10:42:46;;;;;;;11.27;4.90;;;;;;;;;;5033874;28;20080;-62
2023/10/31 10:45:16;;;;;;;10.68;4.55;;;;;;;;;;5005251;28;20053;-63
2023/10/31 10:47:47;;;;;;;9.20;4.15;;;;;;;;;;5029943;28;20060;-61
2023/10/31 10:50:20;;;;;;;11.98;4.40;;;;;;;;;;5033414;28;20080;-62
2023/10/31 10:52:55;;;;;;;10.80;4.05;;;;;;;;;;5016066;28;20073;-63
2023/10/31 10:55:27;;;;;;;13.50;4.82;;;;;;;;;;4993143;28;20057;-63
2023/10/31 10:58:03;;;;;;;8.75;4.30;;;;;;;;;;5038256;28;20099;-62
2023/10/31 11:00:30;;;;;;;15.68;4.22;;;;;;;;;;5048715;28;20213;-63
2023/10/31 11:03:00;;;;;;;10.52;4.20;;;;;;;;;;5026364;28;20057;-65
2023/10/31 11:05:30;;;;;;;9.82;4.35;;;;;;;;;;4977624;28;20147;-61
2023/10/31 11:07:58;;;;;;;13.57;4.05;;;;;;;;;;5026381;28;20061;-64
2023/10/31 11:10:26;;;;;;;10.73;4.25;;;;;;;;;;5034444;28;20064;-61
2023/10/31 11:12:56;;;;;;;11.37;4.30;;;;;;;;;;5026313;28;20058;-61
2023/10/31 11:15:25;;;;;;;10.75;5.50;;;;;;;;;;5013073;28;20080;-63
2023/10/31 11:17:52;;;;;;;14.77;6.10;;;;;;;;;;4974677;28;20075;-62
2023/10/31 11:20:21;;;;;;;21.25;7.57;;;;;;;;;;5013587;28;20076;-62
2023/10/31 11:22:57;;;;;;;19.05;8.45;;;;;;;;;;5023467;28;20072;-63
2023/10/31 11:25:26;;;;;;;14.82;7.22;;;;;;;;;;4986581;28;20060;-62
2023/10/31 11:27:58;;;;;;;15.45;7.60;;;;;;;;;;4924998;28;20049;-63
2023/10/31 11:30:29;;;;;;;17.83;7.78;;;;;;;;;;5005473;28;20060;-61
2023/10/31 11:32:59;;;;;;;17.70;8.90;;;;;;;;;;5009937;28;20182;-63
2023/10/31 11:35:28;;;;;;;19.17;7.72;;;;;;;;;;4954827;28;20053;-64
2023/10/31 11:38:12;;;;;;;20.38;9.15;;;;;;;;;;4995192;28;20060;-60
2023/10/31 11:41:01;;;;;;;20.15;8.80;;;;;;;;;;5025754;28;20369;-61
2023/10/31 11:43:37;;;;;;;23.20;10.23;;;;;;;;;;5005767;28;20149;-63
2023/10/31 11:46:07;;;;;;;22.00;8.93;;;;;;;;;;4968051;28;20059;-65
2023/10/31 11:48:47;;;;;;;18.05;8.30;;;;;;;;;;5004351;28;20558;-61
2023/10/31 11:51:17;;;;;;;16.13;6.57;;;;;;;;;;5016995;28;20419;-63
2023/10/31 11:53:46;;;;;;;19.90;7.65;;;;;;;;;;5027226;28;20052;-63
2023/10/31 11:56:20;;;;;;;18.17;7.45;;;;;;;;;;5020767;28;20135;-62
2023/10/31 11:58:58;;;;;;;20.25;8.73;;;;;;;;;;4987801;28;20123;-64
2023/10/31 12:01:28;;;;;;;22.30;8.55;;;;;;;;;;5021831;28;20126;-62
2023/10/31 12:03:58;;;;;;;17.20;7.47;;;;;;;;;;5028304;28;20361;-63
2023/10/31 12:06:25;;;;;;;22.05;7.88;;;;;;;;;;4996122;28;20060;-64
2023/10/31 12:08:53;;;;;;;17.58;7.28;;;;;;;;;;4973958;28;20057;-64
2023/10/31 12:11:25;;;;;;;14.90;6.75;;;;;;;;;;5031452;28;20144;-60
2023/10/31 12:13:57;;;;;;;16.25;7.38;;;;;;;;;;5015646;28;20058;-61
2023/10/31 12:16:28;;;;;;;22.35;8.82;;;;;;;;;;4962974;28;20081;-60
2023/10/31 12:18:58;;;;;;;19.17;7.80;;;;;;;;;;4977934;28;20077;-61
2023/10/31 12:21:38;;;;;;;23.08;8.57;;;;;;;;;;5006458;28;20060;-61
2023/10/31 12:24:14;;;;;;;21.55;8.07;;;;;;;;;;5005358;28;20068;-62
2023/10/31 12:26:46;;;;;;;18.70;7.05;;;;;;;;;;4938773;28;20077;-61
2023/10/31 12:29:21;;;;;;;21.70;7.55;;;;;;;;;;4974430;28;20058;-60
2023/10/31 12:31:49;;;;;;;19.30;8.32;;;;;;;;;;4970910;28;20160;-64
2023/10/31 12:34:16;;;;;;;21.92;6.95;;;;;;;;;;4984282;28;20054;-62
2023/10/31 12:36:44;;;;;;;20.63;8.25;;;;;;;;;;4940776;28;20053;-63
2023/10/31 12:39:19;;;;;;;22.80;7.75;;;;;;;;;;5001833;28;20064;-62
2023/10/31 12:41:46;;;;;;;22.23;7.90;;;;;;;;;;5008997;28;20060;-63
2023/10/31 12:44:24;;;;;;;20.38;8.13;;;;;;;;;;5011884;28;20126;-62
2023/10/31 12:46:51;;;;;;;19.00;7.97;;;;;;;;;;4967943;28;20113;-63
2023/10/31 12:49:23;;;;;;;20.10;6.93;;;;;;;;;;4982802;28;20049;-64
2023/10/31 12:51:57;;;;;;;20.73;7.93;;;;;;;;;;5012357;28;20617;-60
2023/10/31 12:54:33;;;;;;;16.67;6.70;;;;;;;;;;5006273;28;20468;-62
2023/10/31 12:57:01;;;;;;;20.48;7.43;;;;;;;;;;4954742;28;20066;-60
2023/10/31 12:59:31;;;;;;;17.67;7.00;;;;;;;;;;5009889;28;20061;-60
2023/10/31 13:01:57;;;;;;;16.55;6.93;;;;;;;;;;5022693;28;20140;-62
2023/10/31 13:04:28;;;;;;;15.32;6.35;;;;;;;;;;5020750;28;20084;-63
2023/10/31 13:06:59;;;;;;;18.65;7.43;;;;;;;;;;4960697;28;20098;-61
2023/10/31 13:09:30;;;;;;;20.42;7.55;;;;;;;;;;5001767;28;20049;-62
2023/10/31 13:12:00;;;;;;;15.13;6.90;;;;;;;;;;5010460;28;20107;-63
2023/10/31 13:14:27;;;;;;;18.80;7.25;;;;;;;;;;5000435;28;20045;-61
2023/10/31 13:16:56;;;;;;;14.73;6.07;;;;;;;;;;4983479;28;20168;-65
2023/10/31 13:19:23;;;;;;;;;;;;;;;;;;5011843;28;20545;-62
2023/10/31 13:21:55;;;;;;;18.20;6.75;;;;;;;;;;5005976;28;19925;-61
2023/10/31 13:24:22;;;;;;;16.52;6.70;;;;;;;;;;5003319;28;20061;-63
2023/10/31 13:26:52;;;;;;;22.58;6.85;;;;;;;;;;4953391;28;20075;-66
2023/10/31 13:29:25;;;;;;;12.98;6.45;;;;;;;;;;4978279;28;20141;-60
2023/10/31 13:31:52;;;;;;;16.70;7.32;;;;;;;;;;4969681;28;20057;-64
2023/10/31 13:34:20;;;;;;;18.08;7.32;;;;;;;;;;4946423;28;20466;-61
2023/10/31 13:36:47;;;;;;;17.98;7.35;;;;;;;;;;4940672;28;20180;-62
2023/10/31 13:39:14;;;;;;;17.15;7.65;;;;;;;;;;4998038;28;20061;-61
2023/10/31 13:41:46;;;;;;;17.50;6.93;;;;;;;;;;5013933;28;20096;-63
2023/10/31 13:44:18;;;;;;;16.23;7.50;;;;;;;;;;5021694;28;20045;-63
2023/10/31 13:46:45;;;;;;;14.38;7.15;;;;;;;;;;4983390;28;20161;-61
2023/10/31 13:49:12;;;;;;;14.93;6.93;;;;;;;;;;5012461;28;20065;-63
2023/10/31 13:51:39;;;;;;;16.65;6.38;;;;;;;;;;5001661;28;20195;-62
2023/10/31 13:54:06;;;;;;;15.80;7.28;;;;;;;;;;5009619;28;20057;-60
2023/10/31 13:56:33;;;;;;;14.55;6.82;;;;;;;;;;4960071;28;20454;-62
2023/10/31 13:59:02;;;;;;;15.60;7.22;;;;;;;;;;4999181;28;20195;-59
2023/10/31 14:01:31;;;;;;;16.55;7.35;;;;;;;;;;5006135;28;20049;-64
2023/10/31 14:04:00;;;;;;;15.57;6.75;;;;;;;;;;5012209;28;20135;-63
2023/10/31 14:06:32;;;;;;;19.65;6.95;;;;;;;;;;4988916;28;20092;-61
2023/10/31 14:08:59;;;;;;;16.63;7.50;;;;;;;;;;5008729;28;20057;-60
2023/10/31 14:11:33;;;;;;;16.88;7.72;;;;;;;;;;5008359;28;20058;-63
2023/10/31 14:14:03;;;;;;;18.00;8.07;;;;;;;;;;5023940;28;20081;-61
2023/10/31 14:16:31;;;;;;;20.83;8.57;;;;;;;;;;5020025;28;20061;-63
2023/10/31 14:19:00;;;;;;;16.65;7.57;;;;;;;;;;5021719;28;20140;-61
2023/10/31 14:21:28;;;;;;;20.13;7.57;;;;;;;;;;5023434;28;20049;-63
2023/10/31 14:23:55;;;;;;;18.60;7.78;;;;;;;;;;5020909;28;20088;-61
2023/10/31 14:26:23;;;;;;;17.60;9.23;;;;;;;;;;5002214;28;20169;-60
2023/10/31 14:28:51;;;;;;;28.08;12.65;;;;;;;;;;4989414;28;20211;-61
2023/10/31 14:31:21;;;;;;;17.55;7.78;;;;;;;;;;5015713;28;20061;-62
2023/10/31 14:33:51;;;;;;;17.38;6.60;;;;;;;;;;5005916;28;20136;-60
2023/10/31 14:36:21;;;;;;;13.85;5.40;;;;;;;;;;4971393;28;20052;-61
2023/10/31 14:38:47;;;;;;;9.93;4.97;;;;;;;;;;4955204;28;20064;-62
2023/10/31 14:41:20;;;;;;;9.13;4.97;;;;;;;;;;5000541;28;20050;-60
2023/10/31 14:43:49;;;;;;;11.65;4.93;;;;;;;;;;5003839;28;20057;-62
2023/10/31 14:46:15;;;;;;;;;;;;;;;;;;4975863;28;20131;-60